sensor_id;sensor_type;location;lat;lon;timestamp;temperature;humidity
5246;DHT22;54412;51.206;6.888;2023-03-14T00:01:57;12.40;99.90
5246;DHT22;54412;51.206;6.888;2023-03-14T00:04:24;12.40;99.90
5246;DHT22;54412;51.206;6.888;2023-03-14T00:06:49;12.40;99.90
5246;DHT22;54412;51.206;6.888;2023-03-14T00:09:16;12.50;99.90
5246;DHT22;54412;51.206;6.888;2023-03-14T00:11:42;12.40;99.90
5246;DHT22;54412;51.206;6.888;2023-03-14T00:14:08;12.40;99.90
5246;DHT22;54412;51.206;6.888;2023-03-14T00:16:34;12.40;99.90
5246;DHT22;54412;51.206;6.888;2023-03-14T00:18:59;12.40;99.90
5246;DHT22;54412;51.206;6.888;2023-03-14T00:21:25;12.40;99.90
5246;DHT22;54412;51.206;6.888;2023-03-14T00:23:51;12.40;99.90
5246;DHT22;54412;51.206;6.888;2023-03-14T00:26:20;12.40;99.90
5246;DHT22;54412;51.206;6.888;2023-03-14T00:28:47;12.50;99.90
5246;DHT22;54412;51.206;6.888;2023-03-14T00:31:17;12.30;99.90
5246;DHT22;54412;51.206;6.888;2023-03-14T00:33:44;12.30;99.90
5246;DHT22;54412;51.206;6.888;2023-03-14T00:36:13;12.30;99.90
5246;DHT22;54412;51.206;6.888;2023-03-14T00:38:42;12.20;99.90
5246;DHT22;54412;51.206;6.888;2023-03-14T00:41:13;12.30;99.90
5246;DHT22;54412;51.206;6.888;2023-03-14T00:43:41;12.30;99.90
5246;DHT22;54412;51.206;6.888;2023-03-14T00:46:07;12.20;99.90
5246;DHT22;54412;51.206;6.888;2023-03-14T00:48:33;12.10;99.90
5246;DHT22;54412;51.206;6.888;2023-03-14T00:50:59;12.10;99.90
5246;DHT22;54412;51.206;6.888;2023-03-14T00:53:25;11.70;99.90
5246;DHT22;54412;51.206;6.888;2023-03-14T00:55:51;11.70;99.90
5246;DHT22;54412;51.206;6.888;2023-03-14T00:58:17;11.40;99.90
5246;DHT22;54412;51.206;6.888;2023-03-14T01:00:44;11.40;99.90
5246;DHT22;54412;51.206;6.888;2023-03-14T01:03:11;11.30;99.90
5246;DHT22;54412;51.206;6.888;2023-03-14T01:05:38;11.30;99.90
5246;DHT22;54412;51.206;6.888;2023-03-14T01:08:04;11.30;99.90
5246;DHT22;54412;51.206;6.888;2023-03-14T01:10:32;11.10;99.90
5246;DHT22;54412;51.206;6.888;2023-03-14T01:12:58;11.10;99.90
5246;DHT22;54412;51.206;6.888;2023-03-14T01:15:23;11.20;99.90
5246;DHT22;54412;51.206;6.888;2023-03-14T01:17:49;11.10;99.90
5246;DHT22;54412;51.206;6.888;2023-03-14T01:20:15;11.20;99.90
5246;DHT22;54412;51.206;6.888;2023-03-14T01:22:42;11.20;99.90
5246;DHT22;54412;51.206;6.888;2023-03-14T01:25:11;11.00;99.90
5246;DHT22;54412;51.206;6.888;2023-03-14T01:27:39;11.00;99.90
5246;DHT22;54412;51.206;6.888;2023-03-14T01:30:06;10.80;99.90
5246;DHT22;54412;51.206;6.888;2023-03-14T01:32:33;10.90;99.90
5246;DHT22;54412;51.206;6.888;2023-03-14T01:34:59;11.00;99.90
5246;DHT22;54412;51.206;6.888;2023-03-14T01:37:25;11.00;99.90
5246;DHT22;54412;51.206;6.888;2023-03-14T01:39:50;10.90;99.90
5246;DHT22;54412;51.206;6.888;2023-03-14T01:42:16;11.00;99.90
5246;DHT22;54412;51.206;6.888;2023-03-14T01:44:59;11.10;99.90
5246;DHT22;54412;51.206;6.888;2023-03-14T01:47:26;11.10;99.90
5246;DHT22;54412;51.206;6.888;2023-03-14T01:49:59;11.20;99.90
5246;DHT22;54412;51.206;6.888;2023-03-14T01:52:49;10.90;99.90
5246;DHT22;54412;51.206;6.888;2023-03-14T01:55:22;11.00;99.90
5246;DHT22;54412;51.206;6.888;2023-03-14T01:57:57;11.00;99.90
5246;DHT22;54412;51.206;6.888;2023-03-14T02:00:27;11.10;99.90
5246;DHT22;54412;51.206;6.888;2023-03-14T02:03:02;11.10;99.90
5246;DHT22;54412;51.206;6.888;2023-03-14T02:05:34;11.20;99.90
5246;DHT22;54412;51.206;6.888;2023-03-14T02:08:07;11.20;99.90
5246;DHT22;54412;51.206;6.888;2023-03-14T02:10:41;11.30;99.90
5246;DHT22;54412;51.206;6.888;2023-03-14T02:13:10;11.20;99.90
5246;DHT22;54412;51.206;6.888;2023-03-14T02:15:38;11.00;99.90
5246;DHT22;54412;51.206;6.888;2023-03-14T02:18:05;11.00;99.90
5246;DHT22;54412;51.206;6.888;2023-03-14T02:20:39;11.10;99.90
5246;DHT22;54412;51.206;6.888;2023-03-14T02:26:38;11.30;99.90
5246;DHT22;54412;51.206;6.888;2023-03-14T02:29:08;11.20;99.90
5246;DHT22;54412;51.206;6.888;2023-03-14T02:31:35;11.10;99.90
5246;DHT22;54412;51.206;6.888;2023-03-14T02:34:02;11.10;99.90
5246;DHT22;54412;51.206;6.888;2023-03-14T02:36:29;11.10;99.90
5246;DHT22;54412;51.206;6.888;2023-03-14T02:39:01;11.00;99.90
5246;DHT22;54412;51.206;6.888;2023-03-14T02:41:34;11.10;99.90
5246;DHT22;54412;51.206;6.888;2023-03-14T02:44:00;11.20;99.90
5246;DHT22;54412;51.206;6.888;2023-03-14T02:46:25;11.20;99.90
5246;DHT22;54412;51.206;6.888;2023-03-14T02:48:54;11.20;99.90
5246;DHT22;54412;51.206;6.888;2023-03-14T02:51:22;11.10;99.90
5246;DHT22;54412;51.206;6.888;2023-03-14T02:53:49;11.10;99.90
5246;DHT22;54412;51.206;6.888;2023-03-14T02:56:15;11.20;99.90
5246;DHT22;54412;51.206;6.888;2023-03-14T02:58:40;11.00;99.90
5246;DHT22;54412;51.206;6.888;2023-03-14T03:01:06;11.10;99.90
5246;DHT22;54412;51.206;6.888;2023-03-14T03:03:32;11.10;99.90
5246;DHT22;54412;51.206;6.888;2023-03-14T03:05:58;11.20;99.90
5246;DHT22;54412;51.206;6.888;2023-03-14T03:08:25;11.10;99.90
5246;DHT22;54412;51.206;6.888;2023-03-14T03:10:53;11.00;99.90
5246;DHT22;54412;51.206;6.888;2023-03-14T03:13:20;11.10;99.90
5246;DHT22;54412;51.206;6.888;2023-03-14T03:15:46;11.10;99.90
5246;DHT22;54412;51.206;6.888;2023-03-14T03:18:12;11.20;99.90
5246;DHT22;54412;51.206;6.888;2023-03-14T03:20:39;11.10;99.90
5246;DHT22;54412;51.206;6.888;2023-03-14T03:23:05;11.10;99.90
5246;DHT22;54412;51.206;6.888;2023-03-14T03:25:31;11.30;99.90
5246;DHT22;54412;51.206;6.888;2023-03-14T03:27:57;11.30;99.90
5246;DHT22;54412;51.206;6.888;2023-03-14T03:30:23;11.30;99.90
5246;DHT22;54412;51.206;6.888;2023-03-14T03:32:49;11.10;99.90
5246;DHT22;54412;51.206;6.888;2023-03-14T03:35:15;11.00;99.90
5246;DHT22;54412;51.206;6.888;2023-03-14T03:37:41;11.10;99.90
5246;DHT22;54412;51.206;6.888;2023-03-14T03:40:08;10.80;99.90
5246;DHT22;54412;51.206;6.888;2023-03-14T03:42:35;10.80;99.90
5246;DHT22;54412;51.206;6.888;2023-03-14T03:45:01;10.80;99.90
5246;DHT22;54412;51.206;6.888;2023-03-14T03:47:28;10.70;99.90
5246;DHT22;54412;51.206;6.888;2023-03-14T03:49:55;10.50;99.90
5246;DHT22;54412;51.206;6.888;2023-03-14T03:52:21;10.60;99.90
5246;DHT22;54412;51.206;6.888;2023-03-14T03:54:47;10.60;99.90
5246;DHT22;54412;51.206;6.888;2023-03-14T03:57:13;10.80;99.90
5246;DHT22;54412;51.206;6.888;2023-03-14T03:59:38;10.70;99.90
5246;DHT22;54412;51.206;6.888;2023-03-14T04:02:05;10.60;99.90
5246;DHT22;54412;51.206;6.888;2023-03-14T04:04:31;10.60;99.90
5246;DHT22;54412;51.206;6.888;2023-03-14T04:06:57;10.80;99.90
5246;DHT22;54412;51.206;6.888;2023-03-14T04:09:22;10.70;99.90
5246;DHT22;54412;51.206;6.888;2023-03-14T04:11:48;10.60;99.90
5246;DHT22;54412;51.206;6.888;2023-03-14T04:14:14;10.50;99.90
5246;DHT22;54412;51.206;6.888;2023-03-14T04:16:40;10.40;99.90
5246;DHT22;54412;51.206;6.888;2023-03-14T04:19:05;10.40;99.90
5246;DHT22;54412;51.206;6.888;2023-03-14T04:21:31;10.50;99.90
5246;DHT22;54412;51.206;6.888;2023-03-14T04:23:57;10.40;99.90
5246;DHT22;54412;51.206;6.888;2023-03-14T04:26:22;10.40;99.90
5246;DHT22;54412;51.206;6.888;2023-03-14T04:28:48;10.20;99.90
5246;DHT22;54412;51.206;6.888;2023-03-14T04:31:16;10.20;99.90
5246;DHT22;54412;51.206;6.888;2023-03-14T04:33:44;10.30;99.90
5246;DHT22;54412;51.206;6.888;2023-03-14T04:36:11;10.20;99.90
5246;DHT22;54412;51.206;6.888;2023-03-14T04:38:37;10.20;99.90
5246;DHT22;54412;51.206;6.888;2023-03-14T04:41:03;10.30;99.90
5246;DHT22;54412;51.206;6.888;2023-03-14T04:43:29;10.30;99.90
5246;DHT22;54412;51.206;6.888;2023-03-14T04:45:57;10.20;99.90
5246;DHT22;54412;51.206;6.888;2023-03-14T04:48:24;10.20;99.90
5246;DHT22;54412;51.206;6.888;2023-03-14T04:50:51;10.40;99.90
5246;DHT22;54412;51.206;6.888;2023-03-14T04:53:17;10.50;99.90
5246;DHT22;54412;51.206;6.888;2023-03-14T04:55:51;10.60;99.90
5246;DHT22;54412;51.206;6.888;2023-03-14T04:58:19;10.70;99.90
5246;DHT22;54412;51.206;6.888;2023-03-14T05:00:45;10.60;99.90
5246;DHT22;54412;51.206;6.888;2023-03-14T05:03:11;10.60;99.90
5246;DHT22;54412;51.206;6.888;2023-03-14T05:05:39;10.80;99.90
5246;DHT22;54412;51.206;6.888;2023-03-14T05:08:05;10.80;99.90
5246;DHT22;54412;51.206;6.888;2023-03-14T05:10:30;10.90;99.90
5246;DHT22;54412;51.206;6.888;2023-03-14T05:12:56;10.90;99.90
5246;DHT22;54412;51.206;6.888;2023-03-14T05:15:22;10.90;99.90
5246;DHT22;54412;51.206;6.888;2023-03-14T05:17:47;10.80;99.90
5246;DHT22;54412;51.206;6.888;2023-03-14T05:20:14;10.80;99.90
5246;DHT22;54412;51.206;6.888;2023-03-14T05:22:40;10.70;99.90
5246;DHT22;54412;51.206;6.888;2023-03-14T05:25:07;10.80;99.90
5246;DHT22;54412;51.206;6.888;2023-03-14T05:27:33;10.70;99.90
5246;DHT22;54412;51.206;6.888;2023-03-14T05:29:59;10.70;99.90
5246;DHT22;54412;51.206;6.888;2023-03-14T05:32:26;10.70;99.90
5246;DHT22;54412;51.206;6.888;2023-03-14T05:34:52;10.80;99.90
5246;DHT22;54412;51.206;6.888;2023-03-14T05:37:18;10.70;99.90
5246;DHT22;54412;51.206;6.888;2023-03-14T05:39:43;10.80;99.90
5246;DHT22;54412;51.206;6.888;2023-03-14T05:42:09;10.80;99.90
5246;DHT22;54412;51.206;6.888;2023-03-14T05:44:35;10.70;99.90
5246;DHT22;54412;51.206;6.888;2023-03-14T05:47:00;10.70;99.90
5246;DHT22;54412;51.206;6.888;2023-03-14T05:49:26;10.70;99.90
5246;DHT22;54412;51.206;6.888;2023-03-14T05:51:51;10.70;99.90
5246;DHT22;54412;51.206;6.888;2023-03-14T05:54:17;10.70;99.90
5246;DHT22;54412;51.206;6.888;2023-03-14T05:56:43;10.80;99.90
5246;DHT22;54412;51.206;6.888;2023-03-14T05:59:09;10.80;99.90
5246;DHT22;54412;51.206;6.888;2023-03-14T06:01:35;10.70;99.90
5246;DHT22;54412;51.206;6.888;2023-03-14T06:04:00;10.80;99.90
5246;DHT22;54412;51.206;6.888;2023-03-14T06:06:26;10.80;99.90
5246;DHT22;54412;51.206;6.888;2023-03-14T06:08:52;10.90;99.90
5246;DHT22;54412;51.206;6.888;2023-03-14T06:11:18;10.80;99.90
5246;DHT22;54412;51.206;6.888;2023-03-14T06:13:43;10.70;99.90
5246;DHT22;54412;51.206;6.888;2023-03-14T06:16:09;10.80;99.90
5246;DHT22;54412;51.206;6.888;2023-03-14T06:18:35;10.90;99.90
5246;DHT22;54412;51.206;6.888;2023-03-14T06:21:00;10.90;99.90
5246;DHT22;54412;51.206;6.888;2023-03-14T06:23:26;10.90;99.90
5246;DHT22;54412;51.206;6.888;2023-03-14T06:25:52;10.70;99.90
5246;DHT22;54412;51.206;6.888;2023-03-14T06:28:18;10.90;99.90
5246;DHT22;54412;51.206;6.888;2023-03-14T06:30:44;11.00;99.90
5246;DHT22;54412;51.206;6.888;2023-03-14T06:33:09;10.90;99.90
5246;DHT22;54412;51.206;6.888;2023-03-14T06:35:35;11.00;99.90
5246;DHT22;54412;51.206;6.888;2023-03-14T06:38:01;11.10;99.90
5246;DHT22;54412;51.206;6.888;2023-03-14T06:40:28;11.00;99.90
5246;DHT22;54412;51.206;6.888;2023-03-14T06:42:53;11.00;99.90
5246;DHT22;54412;51.206;6.888;2023-03-14T06:45:19;10.90;99.90
5246;DHT22;54412;51.206;6.888;2023-03-14T06:47:45;10.90;99.90
5246;DHT22;54412;51.206;6.888;2023-03-14T06:50:10;10.90;99.90
5246;DHT22;54412;51.206;6.888;2023-03-14T06:52:37;10.90;99.90
5246;DHT22;54412;51.206;6.888;2023-03-14T06:55:03;10.90;99.90
5246;DHT22;54412;51.206;6.888;2023-03-14T06:57:29;10.90;99.90
5246;DHT22;54412;51.206;6.888;2023-03-14T06:59:54;10.90;99.90
5246;DHT22;54412;51.206;6.888;2023-03-14T07:02:23;11.00;99.90
5246;DHT22;54412;51.206;6.888;2023-03-14T07:04:48;11.00;99.90
5246;DHT22;54412;51.206;6.888;2023-03-14T07:07:14;11.00;99.90
5246;DHT22;54412;51.206;6.888;2023-03-14T07:09:41;10.90;99.90
5246;DHT22;54412;51.206;6.888;2023-03-14T07:12:07;10.80;99.90
5246;DHT22;54412;51.206;6.888;2023-03-14T07:14:33;11.00;99.90
5246;DHT22;54412;51.206;6.888;2023-03-14T07:16:58;11.00;99.90
5246;DHT22;54412;51.206;6.888;2023-03-14T07:19:27;11.00;99.90
5246;DHT22;54412;51.206;6.888;2023-03-14T07:21:55;11.10;99.90
5246;DHT22;54412;51.206;6.888;2023-03-14T07:24:21;11.00;99.90
5246;DHT22;54412;51.206;6.888;2023-03-14T07:26:46;11.10;99.90
5246;DHT22;54412;51.206;6.888;2023-03-14T07:29:12;11.00;99.90
5246;DHT22;54412;51.206;6.888;2023-03-14T07:31:38;11.10;99.90
5246;DHT22;54412;51.206;6.888;2023-03-14T07:34:03;11.20;99.90
5246;DHT22;54412;51.206;6.888;2023-03-14T07:36:29;11.10;99.90
5246;DHT22;54412;51.206;6.888;2023-03-14T07:38:55;11.10;99.90
5246;DHT22;54412;51.206;6.888;2023-03-14T07:41:21;11.20;99.90
5246;DHT22;54412;51.206;6.888;2023-03-14T07:43:48;11.10;99.90
5246;DHT22;54412;51.206;6.888;2023-03-14T07:46:14;11.10;99.90
5246;DHT22;54412;51.206;6.888;2023-03-14T07:48:40;11.20;99.90
5246;DHT22;54412;51.206;6.888;2023-03-14T07:51:06;11.30;99.90
5246;DHT22;54412;51.206;6.888;2023-03-14T07:53:32;11.20;99.90
5246;DHT22;54412;51.206;6.888;2023-03-14T07:55:58;11.20;99.90
5246;DHT22;54412;51.206;6.888;2023-03-14T07:58:24;11.20;99.90
5246;DHT22;54412;51.206;6.888;2023-03-14T08:00:50;11.20;99.90
5246;DHT22;54412;51.206;6.888;2023-03-14T08:03:18;11.20;99.90
5246;DHT22;54412;51.206;6.888;2023-03-14T08:05:47;11.10;99.90
5246;DHT22;54412;51.206;6.888;2023-03-14T08:08:14;11.10;99.90
5246;DHT22;54412;51.206;6.888;2023-03-14T08:10:40;11.20;99.90
5246;DHT22;54412;51.206;6.888;2023-03-14T08:13:05;11.20;99.90
5246;DHT22;54412;51.206;6.888;2023-03-14T08:15:31;11.20;99.90
5246;DHT22;54412;51.206;6.888;2023-03-14T08:17:57;11.20;99.90
5246;DHT22;54412;51.206;6.888;2023-03-14T08:20:25;11.30;99.90
5246;DHT22;54412;51.206;6.888;2023-03-14T08:22:55;11.40;99.90
5246;DHT22;54412;51.206;6.888;2023-03-14T08:25:22;11.40;99.90
5246;DHT22;54412;51.206;6.888;2023-03-14T08:27:48;11.60;99.90
5246;DHT22;54412;51.206;6.888;2023-03-14T08:30:15;11.50;99.90
5246;DHT22;54412;51.206;6.888;2023-03-14T08:32:43;11.50;99.90
5246;DHT22;54412;51.206;6.888;2023-03-14T08:35:09;11.60;99.90
5246;DHT22;54412;51.206;6.888;2023-03-14T08:37:35;11.50;99.90
5246;DHT22;54412;51.206;6.888;2023-03-14T08:40:04;11.50;99.90
5246;DHT22;54412;51.206;6.888;2023-03-14T08:42:35;11.50;99.90
5246;DHT22;54412;51.206;6.888;2023-03-14T08:45:02;11.40;99.90
5246;DHT22;54412;51.206;6.888;2023-03-14T08:47:28;11.40;99.90
5246;DHT22;54412;51.206;6.888;2023-03-14T08:49:53;11.40;99.90
5246;DHT22;54412;51.206;6.888;2023-03-14T08:52:19;11.40;99.90
5246;DHT22;54412;51.206;6.888;2023-03-14T08:54:45;11.30;99.90
5246;DHT22;54412;51.206;6.888;2023-03-14T08:57:11;11.50;99.90
5246;DHT22;54412;51.206;6.888;2023-03-14T08:59:37;11.40;99.90
5246;DHT22;54412;51.206;6.888;2023-03-14T09:02:03;11.50;99.90
5246;DHT22;54412;51.206;6.888;2023-03-14T09:04:30;11.50;99.90
5246;DHT22;54412;51.206;6.888;2023-03-14T09:06:56;11.60;99.90
5246;DHT22;54412;51.206;6.888;2023-03-14T09:09:23;11.40;99.90
5246;DHT22;54412;51.206;6.888;2023-03-14T09:11:51;11.30;99.90
5246;DHT22;54412;51.206;6.888;2023-03-14T09:14:17;11.30;99.90
5246;DHT22;54412;51.206;6.888;2023-03-14T09:16:43;11.30;99.90
5246;DHT22;54412;51.206;6.888;2023-03-14T09:19:08;11.40;99.90
5246;DHT22;54412;51.206;6.888;2023-03-14T09:21:34;11.40;99.90
5246;DHT22;54412;51.206;6.888;2023-03-14T09:24:00;11.10;99.90
5246;DHT22;54412;51.206;6.888;2023-03-14T09:26:25;11.00;99.90
5246;DHT22;54412;51.206;6.888;2023-03-14T09:28:51;10.90;99.90
5246;DHT22;54412;51.206;6.888;2023-03-14T09:31:17;10.70;99.90
5246;DHT22;54412;51.206;6.888;2023-03-14T09:33:42;10.50;99.90
5246;DHT22;54412;51.206;6.888;2023-03-14T09:36:09;10.40;99.90
5246;DHT22;54412;51.206;6.888;2023-03-14T09:38:35;10.30;99.90
5246;DHT22;54412;51.206;6.888;2023-03-14T09:41:03;10.20;99.90
5246;DHT22;54412;51.206;6.888;2023-03-14T09:43:37;10.20;99.90
5246;DHT22;54412;51.206;6.888;2023-03-14T09:46:05;10.10;99.90
5246;DHT22;54412;51.206;6.888;2023-03-14T09:48:34;10.00;99.90
5246;DHT22;54412;51.206;6.888;2023-03-14T09:51:05;9.90;99.90
5246;DHT22;54412;51.206;6.888;2023-03-14T09:53:40;10.00;99.90
5246;DHT22;54412;51.206;6.888;2023-03-14T09:56:20;10.00;99.90
5246;DHT22;54412;51.206;6.888;2023-03-14T09:58:57;10.00;99.90
5246;DHT22;54412;51.206;6.888;2023-03-14T10:01:30;9.90;99.90
5246;DHT22;54412;51.206;6.888;2023-03-14T10:04:02;9.80;99.90
5246;DHT22;54412;51.206;6.888;2023-03-14T10:06:35;9.90;99.90
5246;DHT22;54412;51.206;6.888;2023-03-14T10:09:01;9.90;99.90
5246;DHT22;54412;51.206;6.888;2023-03-14T10:11:27;10.10;99.90
5246;DHT22;54412;51.206;6.888;2023-03-14T10:14:08;10.10;99.90
5246;DHT22;54412;51.206;6.888;2023-03-14T10:16:44;10.00;99.90
5246;DHT22;54412;51.206;6.888;2023-03-14T10:19:13;10.10;99.90
5246;DHT22;54412;51.206;6.888;2023-03-14T10:21:50;10.20;99.90
5246;DHT22;54412;51.206;6.888;2023-03-14T10:24:34;10.10;99.90
5246;DHT22;54412;51.206;6.888;2023-03-14T10:27:05;10.00;99.90
5246;DHT22;54412;51.206;6.888;2023-03-14T10:29:52;10.00;99.90
5246;DHT22;54412;51.206;6.888;2023-03-14T10:32:21;9.90;99.90
5246;DHT22;54412;51.206;6.888;2023-03-14T10:35:08;9.90;99.90
5246;DHT22;54412;51.206;6.888;2023-03-14T10:37:57;10.10;99.90
5246;DHT22;54412;51.206;6.888;2023-03-14T10:40:31;10.20;99.90
5246;DHT22;54412;51.206;6.888;2023-03-14T10:42:59;10.00;99.90
5246;DHT22;54412;51.206;6.888;2023-03-14T10:45:44;10.10;99.90
5246;DHT22;54412;51.206;6.888;2023-03-14T10:48:33;10.40;99.90
5246;DHT22;54412;51.206;6.888;2023-03-14T10:53:26;10.20;99.90
5246;DHT22;54412;51.206;6.888;2023-03-14T10:56:02;10.30;99.90
5246;DHT22;54412;51.206;6.888;2023-03-14T10:58:30;10.20;99.90
5246;DHT22;54412;51.206;6.888;2023-03-14T11:03:40;9.90;99.90
5246;DHT22;54412;51.206;6.888;2023-03-14T11:06:23;9.80;99.90
5246;DHT22;54412;51.206;6.888;2023-03-14T11:09:29;9.50;99.90
5246;DHT22;54412;51.206;6.888;2023-03-14T11:12:41;9.30;99.90
5246;DHT22;54412;51.206;6.888;2023-03-14T11:15:32;9.30;99.90
5246;DHT22;54412;51.206;6.888;2023-03-14T11:18:28;9.20;99.90
5246;DHT22;54412;51.206;6.888;2023-03-14T11:24:03;9.20;99.90
5246;DHT22;54412;51.206;6.888;2023-03-14T11:26:59;9.20;99.90
5246;DHT22;54412;51.206;6.888;2023-03-14T11:32:36;9.10;99.90
5246;DHT22;54412;51.206;6.888;2023-03-14T11:35:12;8.90;99.90
5246;DHT22;54412;51.206;6.888;2023-03-14T11:38:07;8.80;99.90
5246;DHT22;54412;51.206;6.888;2023-03-14T11:40:46;9.00;99.90
5246;DHT22;54412;51.206;6.888;2023-03-14T11:43:32;8.90;99.90
5246;DHT22;54412;51.206;6.888;2023-03-14T11:51:25;9.20;99.90
5246;DHT22;54412;51.206;6.888;2023-03-14T11:57:01;9.20;99.90
5246;DHT22;54412;51.206;6.888;2023-03-14T12:02:31;9.30;99.90
5246;DHT22;54412;51.206;6.888;2023-03-14T12:10:51;9.00;99.90
5246;DHT22;54412;51.206;6.888;2023-03-14T12:13:21;9.00;99.90
5246;DHT22;54412;51.206;6.888;2023-03-14T12:15:50;9.20;99.90
5246;DHT22;54412;51.206;6.888;2023-03-14T12:18:27;9.10;99.90
5246;DHT22;54412;51.206;6.888;2023-03-14T12:21:06;9.00;99.90
5246;DHT22;54412;51.206;6.888;2023-03-14T12:23:45;8.90;99.90
5246;DHT22;54412;51.206;6.888;2023-03-14T12:26:21;9.00;99.90
5246;DHT22;54412;51.206;6.888;2023-03-14T12:34:25;9.00;99.90
5246;DHT22;54412;51.206;6.888;2023-03-14T12:36:59;9.40;99.90
5246;DHT22;54412;51.206;6.888;2023-03-14T12:42:51;10.40;99.90
5246;DHT22;54412;51.206;6.888;2023-03-14T12:45:35;10.30;99.90
5246;DHT22;54412;51.206;6.888;2023-03-14T12:48:11;9.90;99.90
5246;DHT22;54412;51.206;6.888;2023-03-14T12:59:38;9.50;99.90
5246;DHT22;54412;51.206;6.888;2023-03-14T13:10:21;9.30;99.90
5246;DHT22;54412;51.206;6.888;2023-03-14T13:12:57;9.00;99.90
5246;DHT22;54412;51.206;6.888;2023-03-14T13:15:44;8.80;99.90
5246;DHT22;54412;51.206;6.888;2023-03-14T13:18:16;8.90;99.90
5246;DHT22;54412;51.206;6.888;2023-03-14T13:20:46;8.80;99.90
5246;DHT22;54412;51.206;6.888;2023-03-14T13:23:29;9.10;99.90
5246;DHT22;54412;51.206;6.888;2023-03-14T13:25:58;9.60;99.90
5246;DHT22;54412;51.206;6.888;2023-03-14T13:28:26;9.60;99.90
5246;DHT22;54412;51.206;6.888;2023-03-14T13:30:57;9.60;99.90
5246;DHT22;54412;51.206;6.888;2023-03-14T13:33:25;9.50;99.90
5246;DHT22;54412;51.206;6.888;2023-03-14T13:36:02;9.50;99.90
5246;DHT22;54412;51.206;6.888;2023-03-14T13:38:32;9.50;99.90
5246;DHT22;54412;51.206;6.888;2023-03-14T13:41:04;9.60;99.90
5246;DHT22;54412;51.206;6.888;2023-03-14T13:43:41;9.60;99.90
5246;DHT22;54412;51.206;6.888;2023-03-14T13:46:15;9.70;99.90
5246;DHT22;54412;51.206;6.888;2023-03-14T13:48:48;9.60;99.90
5246;DHT22;54412;51.206;6.888;2023-03-14T13:51:20;9.20;99.90
5246;DHT22;54412;51.206;6.888;2023-03-14T13:53:49;9.00;99.90
5246;DHT22;54412;51.206;6.888;2023-03-14T13:56:20;8.60;99.90
5246;DHT22;54412;51.206;6.888;2023-03-14T13:58:47;8.60;99.90
5246;DHT22;54412;51.206;6.888;2023-03-14T14:01:21;8.70;99.90
5246;DHT22;54412;51.206;6.888;2023-03-14T14:03:52;8.70;99.90
5246;DHT22;54412;51.206;6.888;2023-03-14T14:06:26;8.70;99.90
5246;DHT22;54412;51.206;6.888;2023-03-14T14:08:56;8.80;99.90
5246;DHT22;54412;51.206;6.888;2023-03-14T14:11:47;8.90;99.90
5246;DHT22;54412;51.206;6.888;2023-03-14T14:17:13;9.50;99.90
5246;DHT22;54412;51.206;6.888;2023-03-14T14:20:02;9.80;99.90
5246;DHT22;54412;51.206;6.888;2023-03-14T14:22:32;9.80;99.90
5246;DHT22;54412;51.206;6.888;2023-03-14T14:24:59;9.70;99.90
5246;DHT22;54412;51.206;6.888;2023-03-14T14:27:36;9.70;99.90
5246;DHT22;54412;51.206;6.888;2023-03-14T14:30:26;9.80;99.90
5246;DHT22;54412;51.206;6.888;2023-03-14T14:33:18;9.70;99.90
5246;DHT22;54412;51.206;6.888;2023-03-14T14:38:22;9.80;99.90
5246;DHT22;54412;51.206;6.888;2023-03-14T14:40:54;10.00;99.90
5246;DHT22;54412;51.206;6.888;2023-03-14T14:43:27;10.00;99.90
5246;DHT22;54412;51.206;6.888;2023-03-14T14:45:56;10.10;99.90
5246;DHT22;54412;51.206;6.888;2023-03-14T14:48:25;10.00;99.90
5246;DHT22;54412;51.206;6.888;2023-03-14T14:51:02;10.10;99.90
5246;DHT22;54412;51.206;6.888;2023-03-14T14:53:38;10.10;99.90
5246;DHT22;54412;51.206;6.888;2023-03-14T14:56:21;10.10;99.90
5246;DHT22;54412;51.206;6.888;2023-03-14T14:58:58;9.80;99.90
5246;DHT22;54412;51.206;6.888;2023-03-14T15:01:33;9.70;99.90
5246;DHT22;54412;51.206;6.888;2023-03-14T15:04:11;9.70;99.90
5246;DHT22;54412;51.206;6.888;2023-03-14T15:06:39;9.70;99.90
5246;DHT22;54412;51.206;6.888;2023-03-14T15:09:10;9.70;99.90
5246;DHT22;54412;51.206;6.888;2023-03-14T15:11:36;9.60;99.90
5246;DHT22;54412;51.206;6.888;2023-03-14T15:14:02;9.60;99.90
5246;DHT22;54412;51.206;6.888;2023-03-14T15:16:29;9.70;99.90
5246;DHT22;54412;51.206;6.888;2023-03-14T15:18:58;9.70;99.90
5246;DHT22;54412;51.206;6.888;2023-03-14T15:21:27;9.70;99.90
5246;DHT22;54412;51.206;6.888;2023-03-14T15:23:53;9.70;99.90
5246;DHT22;54412;51.206;6.888;2023-03-14T15:26:25;9.70;99.90
5246;DHT22;54412;51.206;6.888;2023-03-14T15:28:52;9.80;99.90
5246;DHT22;54412;51.206;6.888;2023-03-14T15:31:19;9.90;99.90
5246;DHT22;54412;51.206;6.888;2023-03-14T15:33:46;9.80;99.90
5246;DHT22;54412;51.206;6.888;2023-03-14T15:36:29;9.70;99.90
5246;DHT22;54412;51.206;6.888;2023-03-14T15:38:58;9.70;99.90
5246;DHT22;54412;51.206;6.888;2023-03-14T15:41:25;9.70;99.90
5246;DHT22;54412;51.206;6.888;2023-03-14T15:43:53;9.70;99.90
5246;DHT22;54412;51.206;6.888;2023-03-14T15:46:20;9.70;99.90
5246;DHT22;54412;51.206;6.888;2023-03-14T15:48:47;9.50;99.90
5246;DHT22;54412;51.206;6.888;2023-03-14T15:51:14;9.40;99.90
5246;DHT22;54412;51.206;6.888;2023-03-14T15:53:40;9.40;99.90
5246;DHT22;54412;51.206;6.888;2023-03-14T15:56:12;9.50;99.90
5246;DHT22;54412;51.206;6.888;2023-03-14T15:58:40;9.40;99.90
5246;DHT22;54412;51.206;6.888;2023-03-14T16:01:07;9.40;99.90
5246;DHT22;54412;51.206;6.888;2023-03-14T16:03:36;9.40;99.90
5246;DHT22;54412;51.206;6.888;2023-03-14T16:06:02;9.50;99.90
5246;DHT22;54412;51.206;6.888;2023-03-14T16:08:29;9.50;99.90
5246;DHT22;54412;51.206;6.888;2023-03-14T16:10:56;9.60;99.90
5246;DHT22;54412;51.206;6.888;2023-03-14T16:13:24;9.50;99.90
5246;DHT22;54412;51.206;6.888;2023-03-14T16:16:08;9.40;99.90
5246;DHT22;54412;51.206;6.888;2023-03-14T16:18:36;9.40;99.90
5246;DHT22;54412;51.206;6.888;2023-03-14T16:21:10;9.50;99.90
5246;DHT22;54412;51.206;6.888;2023-03-14T16:23:38;9.40;99.90
5246;DHT22;54412;51.206;6.888;2023-03-14T16:26:08;9.50;99.90
5246;DHT22;54412;51.206;6.888;2023-03-14T16:28:36;9.60;99.90
5246;DHT22;54412;51.206;6.888;2023-03-14T16:31:04;9.50;99.90
5246;DHT22;54412;51.206;6.888;2023-03-14T16:33:32;9.40;99.90
5246;DHT22;54412;51.206;6.888;2023-03-14T16:36:00;9.20;99.90
5246;DHT22;54412;51.206;6.888;2023-03-14T16:38:31;9.30;99.90
5246;DHT22;54412;51.206;6.888;2023-03-14T16:40:58;9.30;99.90
5246;DHT22;54412;51.206;6.888;2023-03-14T16:43:26;9.10;99.90
5246;DHT22;54412;51.206;6.888;2023-03-14T16:45:53;9.10;99.90
5246;DHT22;54412;51.206;6.888;2023-03-14T16:48:19;9.10;99.90
5246;DHT22;54412;51.206;6.888;2023-03-14T16:50:45;9.10;99.90
5246;DHT22;54412;51.206;6.888;2023-03-14T16:53:11;9.00;99.90
5246;DHT22;54412;51.206;6.888;2023-03-14T16:55:41;8.90;99.90
5246;DHT22;54412;51.206;6.888;2023-03-14T16:58:07;8.80;99.90
5246;DHT22;54412;51.206;6.888;2023-03-14T17:00:33;8.80;99.90
5246;DHT22;54412;51.206;6.888;2023-03-14T17:02:59;8.90;99.90
5246;DHT22;54412;51.206;6.888;2023-03-14T17:05:24;8.90;99.90
5246;DHT22;54412;51.206;6.888;2023-03-14T17:07:50;8.90;99.90